Time;durP1;ratioP1;P1;durP2;ratioP2;P2;SDS_P1;SDS_P2;PMS_P1;PMS_P2;Temp;Humidity;BMP_temperature;BMP_pressure;BME280_temperature;BME280_humidity;BME280_pressure;Samples;Min_cycle;Max_cycle;Signal;HPM_P1;HPM_P2
2023/03/07 00:01:03;;;;;;;1999.90;999.90;;;3.00;99.90;;;;;;5106913;28;20906;-69
2023/03/07 00:03:30;;;;;;;1999.90;999.90;;;3.00;99.90;;;;;;5109744;28;21003;-68
2023/03/07 00:06:01;;;;;;;1999.90;999.90;;;3.10;99.90;;;;;;5108548;28;20428;-67
2023/03/07 00:08:28;;;;;;;1999.90;999.90;;;3.20;99.90;;;;;;5108528;28;20436;-68
2023/03/07 00:10:55;;;;;;;1999.90;999.90;;;3.20;99.90;;;;;;5109440;28;20474;-70
2023/03/07 00:13:21;;;;;;;1999.90;999.90;;;3.20;99.90;;;;;;5108922;28;20429;-68
2023/03/07 00:15:49;;;;;;;1999.90;999.90;;;3.10;99.90;;;;;;5109949;28;20428;-68
2023/03/07 00:18:16;;;;;;;1999.90;999.90;;;3.00;99.90;;;;;;5108775;28;20420;-70
2023/03/07 00:20:43;;;;;;;1999.90;999.90;;;3.10;99.90;;;;;;5109719;28;20424;-68
2023/03/07 00:23:09;;;;;;;1999.90;999.90;;;3.20;99.90;;;;;;5112401;28;20499;-68
2023/03/07 00:25:36;;;;;;;1999.90;999.90;;;3.20;99.90;;;;;;5111168;28;20992;-68
2023/03/07 00:28:03;;;;;;;1999.90;999.90;;;3.20;99.90;;;;;;5107312;28;20428;-70
2023/03/07 00:30:29;;;;;;;1999.90;999.90;;;3.30;99.90;;;;;;5109635;28;20431;-67
2023/03/07 00:32:57;;;;;;;1999.90;999.90;;;3.30;99.90;;;;;;5103129;28;20424;-68
2023/03/07 00:35:24;;;;;;;1999.90;999.90;;;3.40;99.90;;;;;;5108296;28;20813;-68
2023/03/07 00:37:50;;;;;;;1999.90;999.90;;;3.50;99.90;;;;;;5109319;28;20469;-73
2023/03/07 00:40:18;;;;;;;1999.90;999.90;;;3.40;99.90;;;;;;5109035;28;20477;-69
2023/03/07 00:42:44;;;;;;;1999.90;999.90;;;3.40;99.90;;;;;;5110075;28;20477;-68
2023/03/07 00:45:12;;;;;;;1999.90;999.90;;;3.40;99.90;;;;;;5108154;28;21100;-66
2023/03/07 00:47:39;;;;;;;1999.90;999.90;;;3.40;99.90;;;;;;5103330;28;20456;-66
2023/03/07 00:50:07;;;;;;;1999.90;999.90;;;3.40;99.90;;;;;;5107201;28;20485;-68
2023/03/07 00:52:34;;;;;;;1999.90;999.90;;;3.50;99.90;;;;;;5109331;28;20428;-68
2023/03/07 00:55:01;;;;;;;1999.90;999.90;;;3.40;99.90;;;;;;5107026;28;20423;-68
2023/03/07 00:57:27;;;;;;;1999.90;999.90;;;3.30;99.90;;;;;;5109320;28;20844;-68
2023/03/07 00:59:55;;;;;;;1999.90;999.90;;;3.40;99.90;;;;;;5106725;28;22360;-68
2023/03/07 01:02:22;;;;;;;1999.90;999.90;;;3.60;99.90;;;;;;5107943;28;20841;-68
2023/03/07 01:04:48;;;;;;;1999.90;999.90;;;3.60;99.90;;;;;;5109318;28;20424;-69
2023/03/07 01:07:16;;;;;;;1999.90;999.90;;;3.60;99.90;;;;;;5108037;28;20483;-68
2023/03/07 01:09:43;;;;;;;1999.90;999.90;;;3.60;99.90;;;;;;5107998;28;20428;-68
2023/03/07 01:12:10;;;;;;;1999.90;999.90;;;3.60;99.90;;;;;;5108912;28;20428;-68
2023/03/07 01:14:36;;;;;;;1999.90;999.90;;;3.70;99.90;;;;;;5108973;28;20424;-68
2023/03/07 01:17:03;;;;;;;1999.90;999.90;;;3.90;99.90;;;;;;5109249;28;20501;-68
2023/03/07 01:19:29;;;;;;;1999.90;999.90;;;3.80;99.90;;;;;;5107940;28;20426;-70
2023/03/07 01:21:56;;;;;;;1999.90;999.90;;;3.70;99.90;;;;;;5108562;28;20969;-68
2023/03/07 01:24:24;;;;;;;1999.90;999.90;;;3.60;99.90;;;;;;5110114;28;20416;-68
2023/03/07 01:26:50;;;;;;;1999.90;999.90;;;3.60;99.90;;;;;;5108476;28;20416;-68
2023/03/07 01:29:17;;;;;;;1999.90;999.90;;;3.60;99.90;;;;;;5107277;28;20432;-68
2023/03/07 01:31:43;;;;;;;1999.90;999.90;;;3.50;99.90;;;;;;5107848;28;20485;-70
2023/03/07 01:34:10;;;;;;;1999.90;999.90;;;3.50;99.90;;;;;;5108197;28;20473;-68
2023/03/07 01:36:37;;;;;;;1999.90;999.90;;;3.40;99.90;;;;;;5106791;28;20428;-70
2023/03/07 01:39:06;;;;;;;1999.90;999.90;;;3.50;99.90;;;;;;5107245;28;20485;-69
2023/03/07 01:41:35;;;;;;;1999.90;999.90;;;3.50;99.90;;;;;;5105965;28;20432;-71
2023/03/07 01:44:04;;;;;;;1999.90;999.90;;;3.50;99.90;;;;;;5107250;28;20485;-68
2023/03/07 01:46:42;;;;;;;1999.90;999.90;;;3.60;99.90;;;;;;5107137;28;20803;-70
2023/03/07 01:49:14;;;;;;;1999.90;999.90;;;3.70;99.90;;;;;;5107099;28;20428;-69
2023/03/07 01:51:44;;;;;;;1999.90;999.90;;;3.60;99.90;;;;;;5108395;28;20477;-67
2023/03/07 01:54:16;;;;;;;1999.90;999.90;;;3.70;99.90;;;;;;5107335;28;20470;-67
2023/03/07 01:56:45;;;;;;;1999.90;999.90;;;3.70;99.90;;;;;;5107497;28;20484;-69
2023/03/07 01:59:12;;;;;;;1999.90;999.90;;;3.80;99.90;;;;;;5106697;28;20424;-67
2023/03/07 02:01:39;;;;;;;1999.90;999.90;;;3.80;99.90;;;;;;5106320;28;20485;-69
2023/03/07 02:04:11;;;;;;;1999.90;999.90;;;4.20;99.90;;;;;;5107903;28;20480;-69
2023/03/07 02:06:39;;;;;;;1999.90;999.90;;;3.70;99.90;;;;;;5106426;28;20846;-69
2023/03/07 02:09:12;;;;;;;1999.90;999.90;;;3.70;99.90;;;;;;5106928;28;20484;-68
2023/03/07 02:11:41;;;;;;;1999.90;999.90;;;3.90;99.90;;;;;;5107786;28;20461;-69
2023/03/07 02:14:09;;;;;;;1999.90;999.90;;;3.70;99.90;;;;;;5106744;28;20423;-68
2023/03/07 02:16:37;;;;;;;1999.90;999.90;;;3.70;99.90;;;;;;5107445;28;20918;-69
2023/03/07 02:19:09;;;;;;;1999.90;999.90;;;3.60;99.90;;;;;;5105847;28;20801;-68
2023/03/07 02:21:41;;;;;;;1999.90;999.90;;;3.70;99.90;;;;;;5105927;28;20416;-68
2023/03/07 02:24:17;;;;;;;1999.90;999.90;;;3.70;99.90;;;;;;5107826;28;20416;-69
2023/03/07 02:26:46;;;;;;;1999.90;999.90;;;3.80;99.90;;;;;;5101713;28;20420;-69
2023/03/07 02:29:14;;;;;;;1999.90;999.90;;;3.70;99.90;;;;;;5106192;28;20428;-67
2023/03/07 02:31:41;;;;;;;1999.90;999.90;;;3.70;99.90;;;;;;5106620;28;20435;-68
2023/03/07 02:34:21;;;;;;;1999.90;999.90;;;3.80;99.90;;;;;;5106807;28;20430;-65
2023/03/07 02:36:49;;;;;;;1999.90;999.90;;;3.70;99.90;;;;;;5103432;28;20431;-71
2023/03/07 02:39:18;;;;;;;1999.90;999.90;;;3.70;99.90;;;;;;5106971;28;20428;-69
2023/03/07 02:41:46;;;;;;;1999.90;999.90;;;3.60;99.90;;;;;;5107474;28;20844;-72
2023/03/07 02:44:13;;;;;;;1999.90;999.90;;;3.60;99.90;;;;;;5104447;28;20720;-70
2023/03/07 02:46:40;;;;;;;1999.90;999.90;;;3.80;99.90;;;;;;5107989;28;20453;-69
2023/03/07 02:49:06;;;;;;;1999.90;999.90;;;3.70;99.90;;;;;;5106331;28;20427;-69
2023/03/07 02:51:33;;;;;;;1999.90;999.90;;;4.10;99.90;;;;;;5107381;28;20523;-68
2023/03/07 02:54:00;;;;;;;1999.90;999.90;;;3.70;99.90;;;;;;5107708;28;20818;-71
2023/03/07 02:56:27;;;;;;;1999.90;999.90;;;4.00;99.90;;;;;;5107462;28;20511;-68
2023/03/07 02:58:54;;;;;;;1999.90;999.90;;;3.60;99.90;;;;;;5105360;28;20485;-71
2023/03/07 03:01:21;;;;;;;1999.90;999.90;;;3.70;99.90;;;;;;5106571;28;20910;-69
2023/03/07 03:03:48;;;;;;;1999.90;999.90;;;4.30;99.90;;;;;;5101548;28;20430;-70
2023/03/07 03:06:15;;;;;;;1999.90;999.90;;;3.70;99.90;;;;;;5106653;28;20565;-68
2023/03/07 03:08:41;;;;;;;1999.90;999.90;;;4.30;99.90;;;;;;5107038;28;20424;-67
2023/03/07 03:11:08;;;;;;;1999.90;999.90;;;3.80;99.90;;;;;;5105411;28;20428;-67
2023/03/07 03:13:34;;;;;;;1999.90;999.90;;;4.20;99.90;;;;;;5108049;28;20853;-66
2023/03/07 03:16:02;;;;;;;1999.90;999.90;;;3.60;99.90;;;;;;5110953;28;20428;-70
2023/03/07 03:18:30;;;;;;;1999.90;999.90;;;3.70;99.90;;;;;;5109505;28;20424;-69
2023/03/07 03:20:57;;;;;;;1999.90;999.90;;;3.80;99.90;;;;;;5111472;28;20424;-70
2023/03/07 03:23:23;;;;;;;1999.90;999.90;;;3.80;99.90;;;;;;5107512;28;20491;-69
2023/03/07 03:25:57;;;;;;;1999.90;999.90;;;4.00;99.90;;;;;;5110991;28;20428;-68
2023/03/07 03:28:24;;;;;;;1999.90;999.90;;;3.70;99.90;;;;;;5107855;28;20425;-69
2023/03/07 03:30:57;;;;;;;1999.90;999.90;;;3.80;99.90;;;;;;5111437;28;20428;-69
2023/03/07 03:33:27;;;;;;;1999.90;999.90;;;3.80;99.90;;;;;;5125260;28;20456;-72
2023/03/07 03:35:53;;;;;;;1999.90;999.90;;;3.80;99.90;;;;;;5131149;28;20448;-70
2023/03/07 03:38:20;;;;;;;1999.90;999.90;;;4.30;99.90;;;;;;5131313;28;20450;-73
2023/03/07 03:40:46;;;;;;;1999.90;999.90;;;3.80;99.90;;;;;;5132217;28;20424;-69
2023/03/07 03:43:13;;;;;;;1999.90;999.90;;;3.70;99.90;;;;;;5130796;28;20484;-69
2023/03/07 03:45:39;;;;;;;1999.90;999.90;;;3.70;99.90;;;;;;5116500;28;20553;-69
2023/03/07 03:48:07;;;;;;;1999.90;999.90;;;4.30;99.90;;;;;;5108467;28;20431;-70
2023/03/07 03:50:35;;;;;;;1999.90;999.90;;;3.80;99.90;;;;;;5109548;28;20958;-68
2023/03/07 03:53:02;;;;;;;1999.90;999.90;;;4.30;99.90;;;;;;5109464;28;20424;-69
2023/03/07 03:55:29;;;;;;;1999.90;999.90;;;3.80;99.90;;;;;;5109150;28;20489;-69
2023/03/07 03:57:55;;;;;;;1999.90;999.90;;;4.00;99.90;;;;;;5108996;28;20471;-69
2023/03/07 04:00:22;;;;;;;1999.90;999.90;;;3.80;99.90;;;;;;5109289;28;20481;-69
2023/03/07 04:02:49;;;;;;;1999.90;999.90;;;3.90;99.90;;;;;;5110652;28;20432;-67
2023/03/07 04:05:15;;;;;;;1999.90;999.90;;;4.00;99.90;;;;;;5109113;28;20532;-69
2023/03/07 04:07:43;;;;;;;1999.90;999.90;;;4.00;99.90;;;;;;5108375;28;20500;-67
2023/03/07 04:10:11;;;;;;;1999.90;999.90;;;4.00;99.90;;;;;;5107581;28;20481;-69
2023/03/07 04:12:37;;;;;;;1999.90;999.90;;;4.00;99.90;;;;;;5110221;28;20432;-69
2023/03/07 04:15:06;;;;;;;1999.90;999.90;;;3.80;99.90;;;;;;5109221;28;20432;-69
2023/03/07 04:17:32;;;;;;;1999.90;999.90;;;3.80;99.90;;;;;;5109918;28;20416;-68
2023/03/07 04:19:59;;;;;;;1999.90;999.90;;;3.80;99.90;;;;;;5109398;28;20427;-69
2023/03/07 04:22:25;;;;;;;1999.90;999.90;;;4.30;99.90;;;;;;5110897;28;20436;-68
2023/03/07 04:24:53;;;;;;;1999.90;999.90;;;3.80;99.90;;;;;;5112118;28;20408;-68
2023/03/07 04:27:20;;;;;;;1999.90;999.90;;;3.80;99.90;;;;;;5109908;28;20424;-67
2023/03/07 04:29:46;;;;;;;1999.90;999.90;;;3.80;99.90;;;;;;5109115;28;20432;-68
2023/03/07 04:32:13;;;;;;;1999.90;999.90;;;3.80;99.90;;;;;;5110432;28;20424;-68
2023/03/07 04:34:40;;;;;;;1999.90;999.90;;;4.30;99.90;;;;;;5109324;28;20420;-69
2023/03/07 04:37:06;;;;;;;1999.90;999.90;;;3.80;99.90;;;;;;5110275;28;20428;-68
2023/03/07 04:39:33;;;;;;;1999.90;999.90;;;3.70;99.90;;;;;;5108404;28;20556;-66
2023/03/07 04:42:01;;;;;;;1999.90;999.90;;;3.70;99.90;;;;;;5108272;28;20416;-68
2023/03/07 04:44:27;;;;;;;1999.90;999.90;;;3.70;99.90;;;;;;5108762;28;20439;-70
2023/03/07 04:46:54;;;;;;;1999.90;999.90;;;3.80;99.90;;;;;;5104838;28;20917;-69
2023/03/07 04:49:21;;;;;;;1999.90;999.90;;;3.80;99.90;;;;;;5140840;22;20515;-63
2023/03/07 04:51:47;;;;;;;1999.90;999.90;;;3.70;99.90;;;;;;5088171;28;20440;-67
2023/03/07 04:54:14;;;;;;;1999.90;999.90;;;3.80;99.90;;;;;;5088406;28;20903;-64
2023/03/07 04:56:40;;;;;;;1999.90;999.90;;;3.80;99.90;;;;;;5089011;28;20846;-66
2023/03/07 04:59:08;;;;;;;1999.90;999.90;;;3.80;99.90;;;;;;5084775;28;20475;-65
2023/03/07 05:01:35;;;;;;;1999.90;999.90;;;3.70;99.90;;;;;;5068926;28;20427;-66
2023/03/07 05:04:01;;;;;;;1999.90;999.90;;;3.70;99.90;;;;;;5065259;28;20431;-67
2023/03/07 05:06:28;;;;;;;1999.90;999.90;;;3.70;99.90;;;;;;5069091;28;21678;-65
2023/03/07 05:08:55;;;;;;;1999.90;999.90;;;3.70;99.90;;;;;;5069011;28;20991;-65
2023/03/07 05:11:21;;;;;;;1999.90;999.90;;;3.70;99.90;;;;;;5067903;28;20432;-66
2023/03/07 05:13:48;;;;;;;1999.90;999.90;;;4.30;99.90;;;;;;5069575;28;20933;-66
2023/03/07 05:16:16;;;;;;;1999.90;999.90;;;3.60;99.90;;;;;;5068019;28;20435;-66
2023/03/07 05:18:43;;;;;;;1999.90;999.90;;;3.70;99.90;;;;;;5069377;28;20431;-64
2023/03/07 05:21:09;;;;;;;1999.90;999.90;;;3.70;99.90;;;;;;5067113;28;20924;-65
2023/03/07 05:23:36;;;;;;;1999.90;999.90;;;3.80;99.90;;;;;;5068656;28;20505;-65
2023/03/07 05:26:02;;;;;;;1999.90;999.90;;;3.80;99.90;;;;;;5068493;28;20431;-66
2023/03/07 05:28:29;;;;;;;1999.90;999.90;;;3.90;99.90;;;;;;5068373;28;20432;-66
2023/03/07 05:30:56;;;;;;;1999.90;999.90;;;3.90;99.90;;;;;;5064280;28;20427;-66
2023/03/07 05:33:24;;;;;;;1999.90;999.90;;;4.40;99.90;;;;;;5067510;28;20427;-66
2023/03/07 05:35:51;;;;;;;1999.90;999.90;;;4.00;99.90;;;;;;5068423;28;20514;-67
2023/03/07 05:38:18;;;;;;;1999.90;999.90;;;4.00;99.90;;;;;;5066712;28;20435;-66
2023/03/07 05:40:44;;;;;;;1999.90;999.90;;;4.00;99.90;;;;;;5066978;28;20427;-65
2023/03/07 05:43:11;;;;;;;1999.90;999.90;;;4.00;99.90;;;;;;5067542;28;20479;-64
2023/03/07 05:45:37;;;;;;;1999.90;999.90;;;4.10;99.90;;;;;;5069206;28;20488;-66
2023/03/07 05:48:04;;;;;;;1999.90;999.90;;;4.50;99.90;;;;;;5068323;28;20489;-66
2023/03/07 05:50:32;;;;;;;1999.90;999.90;;;4.10;99.90;;;;;;5066832;28;20529;-65
2023/03/07 05:52:59;;;;;;;1999.90;999.90;;;4.00;99.90;;;;;;5063278;28;20485;-66
2023/03/07 05:55:25;;;;;;;1999.90;999.90;;;4.10;99.90;;;;;;5067181;28;20428;-65
2023/03/07 05:57:52;;;;;;;1999.90;999.90;;;4.10;99.90;;;;;;5067924;28;20465;-66
2023/03/07 06:00:20;;;;;;;1999.90;999.90;;;4.10;99.90;;;;;;5066587;28;20463;-63
2023/03/07 06:02:46;;;;;;;1999.90;999.90;;;4.10;99.90;;;;;;5067710;28;20455;-66
2023/03/07 06:05:13;;;;;;;1999.90;999.90;;;4.00;99.90;;;;;;5066804;28;20909;-65
2023/03/07 06:07:41;;;;;;;1999.90;999.90;;;4.10;99.90;;;;;;5067631;28;20423;-67
2023/03/07 06:10:08;;;;;;;1999.90;999.90;;;4.10;99.90;;;;;;5067719;28;20427;-66
2023/03/07 06:12:35;;;;;;;1999.90;999.90;;;4.10;99.90;;;;;;5067150;28;20495;-66
2023/03/07 06:15:02;;;;;;;1999.90;999.90;;;4.10;99.90;;;;;;5068794;28;20431;-66
2023/03/07 06:17:28;;;;;;;1999.90;999.90;;;4.20;99.90;;;;;;5067316;28;20439;-66
2023/03/07 06:19:55;;;;;;;1999.90;999.90;;;4.30;99.90;;;;;;5067826;28;20424;-65
2023/03/07 06:22:22;;;;;;;1999.90;999.90;;;4.30;99.90;;;;;;5066004;28;20913;-66
2023/03/07 06:24:50;;;;;;;1999.90;999.90;;;4.40;99.90;;;;;;5067479;28;20494;-64
2023/03/07 06:27:16;;;;;;;1999.90;999.90;;;4.40;99.90;;;;;;5066498;28;20431;-66
2023/03/07 06:29:43;;;;;;;1999.90;999.90;;;4.40;99.90;;;;;;5065032;28;20433;-64
2023/03/07 06:32:10;;;;;;;1999.90;999.90;;;4.50;99.90;;;;;;5067903;28;20431;-67
2023/03/07 06:34:37;;;;;;;1999.90;999.90;;;4.50;99.90;;;;;;5065606;28;20790;-66
2023/03/07 06:37:04;;;;;;;1999.90;999.90;;;5.10;99.90;;;;;;5067192;28;20432;-66
2023/03/07 06:39:31;;;;;;;1999.90;999.90;;;4.50;99.90;;;;;;5063636;28;20432;-67
2023/03/07 06:41:59;;;;;;;1999.90;999.90;;;5.10;99.90;;;;;;5063590;28;20427;-66
2023/03/07 06:44:25;;;;;;;1999.90;999.90;;;4.60;99.90;;;;;;5066983;28;20476;-66
2023/03/07 06:46:52;;;;;;;1999.90;999.90;;;4.80;99.90;;;;;;5066819;28;20462;-66
2023/03/07 06:49:18;;;;;;;1999.90;999.90;;;5.00;99.90;;;;;;5067967;28;20431;-64
2023/03/07 06:51:45;;;;;;;1999.90;999.90;;;4.90;99.90;;;;;;5070517;28;20553;-67
2023/03/07 06:54:12;;;;;;;1999.90;999.90;;;5.00;99.90;;;;;;5071473;28;20433;-66
2023/03/07 06:56:38;;;;;;;1999.90;999.90;;;4.80;99.90;;;;;;5070387;28;20504;-65
2023/03/07 06:59:06;;;;;;;1999.90;999.90;;;4.90;99.90;;;;;;5073982;28;20473;-66
2023/03/07 07:01:34;;;;;;;1999.90;999.90;;;4.90;99.90;;;;;;5070773;28;20432;-66
2023/03/07 07:04:01;;;;;;;1999.90;999.90;;;4.90;99.90;;;;;;5071034;28;20463;-65
2023/03/07 07:06:27;;;;;;;1999.90;999.90;;;4.90;99.90;;;;;;5071264;28;20485;-66
2023/03/07 07:08:55;;;;;;;1999.90;999.90;;;4.90;99.90;;;;;;5070083;28;20431;-66
2023/03/07 07:11:22;;;;;;;1999.90;999.90;;;5.00;99.90;;;;;;5065511;28;20519;-66
2023/03/07 07:13:49;;;;;;;1999.90;999.90;;;4.90;99.90;;;;;;5070808;28;20427;-68
2023/03/07 07:16:18;;;;;;;1999.90;999.90;;;5.00;99.90;;;;;;5072891;28;20431;-66
2023/03/07 07:18:45;;;;;;;1999.90;999.90;;;5.00;99.90;;;;;;5068921;28;20428;-64
2023/03/07 07:21:11;;;;;;;1999.90;999.90;;;5.10;99.90;;;;;;5071119;28;20435;-66
2023/03/07 07:23:38;;;;;;;1999.90;999.90;;;4.70;99.90;;;;;;5070087;28;20463;-67
2023/03/07 07:26:05;;;;;;;1999.90;999.90;;;5.60;99.90;;;;;;5071342;28;20427;-67
2023/03/07 07:28:32;;;;;;;1999.90;999.90;;;5.10;99.90;;;;;;5069403;28;20493;-66
2023/03/07 07:30:59;;;;;;;1999.90;999.90;;;5.20;99.90;;;;;;5070791;28;20440;-66
2023/03/07 07:33:27;;;;;;;1999.90;999.90;;;5.20;99.90;;;;;;5069930;28;20979;-68
2023/03/07 07:35:54;;;;;;;1999.90;999.90;;;5.30;99.90;;;;;;5069627;28;20434;-67
2023/03/07 07:38:20;;;;;;;1999.90;999.90;;;5.30;99.90;;;;;;5067846;28;20489;-65
2023/03/07 07:40:47;;;;;;;1999.90;999.90;;;5.40;99.90;;;;;;5070340;28;20478;-65
2023/03/07 07:43:15;;;;;;;1999.90;999.90;;;5.50;99.90;;;;;;5068598;28;20432;-64
2023/03/07 07:45:42;;;;;;;1999.90;999.90;;;5.60;99.90;;;;;;5068554;28;20504;-66
2023/03/07 07:48:09;;;;;;;1999.90;999.90;;;5.60;99.90;;;;;;5070451;28;20431;-65
2023/03/07 07:50:37;;;;;;;1999.90;999.90;;;5.70;99.90;;;;;;5067158;28;20920;-65
2023/03/07 07:53:04;;;;;;;1999.90;999.90;;;5.60;99.90;;;;;;5069534;28;20478;-66
2023/03/07 07:55:30;;;;;;;1999.90;999.90;;;5.60;99.90;;;;;;5067700;28;20466;-66
2023/03/07 07:57:57;;;;;;;1999.90;999.90;;;5.90;99.90;;;;;;5069435;28;20517;-67
2023/03/07 08:00:24;;;;;;;1999.90;999.90;;;5.80;99.90;;;;;;5070135;28;20427;-67
2023/03/07 08:02:51;;;;;;;1999.90;999.90;;;5.90;99.90;;;;;;5061798;28;20478;-67
2023/03/07 08:05:19;;;;;;;1999.90;999.90;;;6.00;99.90;;;;;;5053852;28;20425;-66
2023/03/07 08:07:49;;;;;;;1999.90;999.90;;;6.00;99.90;;;;;;5071416;28;20414;-67
2023/03/07 08:10:17;;;;;;;1999.90;999.90;;;6.10;99.90;;;;;;5058489;28;20431;-66
2023/03/07 08:12:44;;;;;;;1999.90;999.90;;;6.00;99.90;;;;;;5051869;28;20958;-66
2023/03/07 08:15:11;;;;;;;1999.90;999.90;;;6.10;99.90;;;;;;5061530;28;20917;-65
2023/03/07 08:17:38;;;;;;;1999.90;999.90;;;6.10;99.90;;;;;;5067669;28;20427;-67
2023/03/07 08:20:08;;;;;;;1999.90;999.90;;;6.20;99.90;;;;;;5067049;28;20974;-68
2023/03/07 08:22:35;;;;;;;1999.90;999.90;;;6.40;99.90;;;;;;5059679;28;20461;-68
2023/03/07 08:25:03;;;;;;;1999.90;999.90;;;6.30;99.90;;;;;;5071194;28;20893;-65
2023/03/07 08:27:30;;;;;;;1999.90;999.90;;;6.50;99.90;;;;;;5067608;28;20427;-67
2023/03/07 08:29:56;;;;;;;1999.90;999.90;;;6.20;99.90;;;;;;5070112;28;21058;-67
2023/03/07 08:32:23;;;;;;;1999.90;999.90;;;6.20;99.90;;;;;;5069178;28;20424;-66
2023/03/07 08:34:50;;;;;;;1999.90;999.90;;;6.80;99.90;;;;;;5068761;28;20925;-68
2023/03/07 08:37:16;;;;;;;1999.90;999.90;;;6.40;99.90;;;;;;5068947;28;20431;-67
2023/03/07 08:39:43;;;;;;;1999.90;999.90;;;6.60;99.90;;;;;;5067881;28;20491;-67
2023/03/07 08:42:11;;;;;;;1999.90;999.90;;;6.70;99.90;;;;;;5063613;28;20909;-67
2023/03/07 08:44:37;;;;;;;1999.90;999.90;;;6.90;99.90;;;;;;5068761;28;20489;-68
2023/03/07 08:47:04;;;;;;;1999.90;999.90;;;6.80;99.90;;;;;;5068328;28;20435;-67
2023/03/07 08:49:31;;;;;;;1999.90;999.90;;;6.70;99.90;;;;;;5068455;28;20428;-67
2023/03/07 08:51:57;;;;;;;1999.90;999.90;;;6.90;99.90;;;;;;5068435;28;20476;-67
2023/03/07 08:54:24;;;;;;;1999.90;999.90;;;6.80;99.90;;;;;;5068495;28;20520;-67
2023/03/07 08:56:50;;;;;;;1999.90;999.90;;;6.90;99.90;;;;;;5068371;28;20489;-67
2023/03/07 08:59:18;;;;;;;1999.90;999.90;;;6.90;99.90;;;;;;5068290;28;20428;-67
2023/03/07 09:01:45;;;;;;;1999.90;999.90;;;7.00;99.90;;;;;;5068197;28;20439;-66
2023/03/07 09:04:11;;;;;;;1999.90;999.90;;;7.30;99.90;;;;;;5067637;28;20783;-65
2023/03/07 09:06:38;;;;;;;1999.90;999.90;;;7.00;99.90;;;;;;5067792;28;20516;-67
2023/03/07 09:09:05;;;;;;;1999.90;999.90;;;7.00;99.90;;;;;;5068417;28;20424;-67
2023/03/07 09:11:31;;;;;;;1999.90;999.90;;;7.00;99.90;;;;;;5066665;28;20431;-68
2023/03/07 09:13:58;;;;;;;1999.90;999.90;;;7.10;99.90;;;;;;5068649;28;20431;-68
2023/03/07 09:16:26;;;;;;;1999.90;999.90;;;7.00;99.90;;;;;;5065892;28;20435;-66
2023/03/07 09:18:52;;;;;;;1999.90;999.90;;;7.30;99.90;;;;;;5064104;28;20431;-68
2023/03/07 09:21:19;;;;;;;1999.90;999.90;;;7.50;99.90;;;;;;5067462;28;20432;-69
2023/03/07 09:23:46;;;;;;;1999.90;999.90;;;7.30;99.90;;;;;;5065154;28;20448;-67
2023/03/07 09:26:12;;;;;;;1999.90;999.90;;;7.50;99.90;;;;;;5066337;28;20983;-68
2023/03/07 09:28:39;;;;;;;1999.90;999.90;;;7.20;99.90;;;;;;5066408;28;20518;-67
2023/03/07 09:31:07;;;;;;;1999.90;999.90;;;7.10;99.90;;;;;;5066661;28;20427;-68
2023/03/07 09:33:35;;;;;;;1999.90;999.90;;;7.00;99.90;;;;;;5066271;28;20488;-67
2023/03/07 09:36:04;;;;;;;1999.90;999.90;;;7.10;99.90;;;;;;5065695;28;20516;-67
2023/03/07 09:38:31;;;;;;;1999.90;999.90;;;7.10;99.90;;;;;;5066240;28;20428;-69
2023/03/07 09:41:05;;;;;;;1999.90;999.90;;;7.30;99.90;;;;;;5067133;28;20435;-70
2023/03/07 09:43:41;;;;;;;1999.90;999.90;;;7.40;99.90;;;;;;5066009;28;20913;-67
2023/03/07 09:46:20;;;;;;;1999.90;999.90;;;7.50;99.90;;;;;;5065156;28;20435;-66
2023/03/07 09:48:58;;;;;;;1999.90;999.90;;;7.40;99.90;;;;;;5066705;28;20432;-67
2023/03/07 09:51:31;;;;;;;1999.90;999.90;;;7.70;99.90;;;;;;5068090;28;20431;-66
2023/03/07 09:54:01;;;;;;;1999.90;999.90;;;7.20;99.90;;;;;;5065790;28;20481;-69
2023/03/07 09:56:33;;;;;;;1999.90;999.90;;;7.60;99.90;;;;;;5066624;28;20479;-68
2023/03/07 09:59:03;;;;;;;1999.90;999.90;;;7.30;99.90;;;;;;5053509;28;20421;-68
2023/03/07 10:01:34;;;;;;;1999.90;999.90;;;7.10;99.90;;;;;;5070195;28;20914;-68
2023/03/07 10:04:06;;;;;;;1999.90;999.90;;;7.00;99.90;;;;;;5070187;28;20407;-68
2023/03/07 10:06:37;;;;;;;1999.90;999.90;;;6.80;99.90;;;;;;5062755;28;20927;-68
2023/03/07 10:09:07;;;;;;;1999.90;999.90;;;6.40;99.90;;;;;;5058379;28;21832;-67
2023/03/07 10:12:17;;;;;;;1999.90;999.90;;;6.30;99.90;;;;;;5050144;28;20417;-67
2023/03/07 10:15:03;;;;;;;1999.90;999.90;;;5.90;99.90;;;;;;5012466;28;20425;-66
2023/03/07 10:17:48;;;;;;;1999.90;999.90;;;5.60;99.90;;;;;;5064155;28;20428;-67
2023/03/07 10:20:22;;;;;;;1999.90;999.90;;;5.50;99.90;;;;;;5062378;28;20415;-67
2023/03/07 10:22:55;;;;;;;1999.90;999.90;;;5.40;99.90;;;;;;5070271;28;20472;-67
2023/03/07 10:25:26;;;;;;;1999.90;999.90;;;5.30;99.90;;;;;;5073876;28;20468;-65
2023/03/07 10:27:59;;;;;;;1999.90;999.90;;;5.10;99.90;;;;;;5065086;28;20482;-66
2023/03/07 10:30:26;;;;;;;1999.90;999.90;;;5.10;99.90;;;;;;5060155;28;20429;-67
2023/03/07 10:32:57;;;;;;;1999.90;999.90;;;5.50;99.90;;;;;;5054184;28;20463;-67
2023/03/07 10:35:38;;;;;;;1999.90;999.90;;;4.90;99.90;;;;;;5054149;28;20439;-66
2023/03/07 10:38:17;;;;;;;1999.90;999.90;;;4.90;99.90;;;;;;5063845;28;20433;-66
2023/03/07 10:40:49;;;;;;;1999.90;999.90;;;4.90;99.90;;;;;;5057586;28;20409;-65
2023/03/07 10:43:23;;;;;;;1999.90;999.90;;;4.80;99.90;;;;;;5053845;28;20471;-65
2023/03/07 10:45:52;;;;;;;1999.90;999.90;;;4.40;99.90;;;;;;5053773;28;20413;-65
2023/03/07 10:48:22;;;;;;;1999.90;999.90;;;4.20;99.90;;;;;;5069299;28;20482;-67
2023/03/07 10:50:56;;;;;;;1999.90;999.90;;;4.00;99.90;;;;;;5070944;28;20643;-70
2023/03/07 10:53:26;;;;;;;1999.90;999.90;;;3.80;99.90;;;;;;5073625;28;20462;-69
2023/03/07 10:55:53;;;;;;;1999.90;999.90;;;3.70;99.90;;;;;;5073136;28;20781;-68
2023/03/07 10:58:22;;;;;;;1999.90;999.90;;;3.60;99.90;;;;;;5069237;28;20421;-69
2023/03/07 11:01:01;;;;;;;1999.90;999.90;;;3.60;99.90;;;;;;5070398;28;20411;-66
2023/03/07 11:03:32;;;;;;;1999.90;999.90;;;3.30;99.90;;;;;;5073601;28;20469;-69
2023/03/07 11:06:00;;;;;;;1999.90;999.90;;;3.10;99.90;;;;;;5072369;28;20966;-68
2023/03/07 11:08:30;;;;;;;1999.90;999.90;;;2.80;99.90;;;;;;5065284;28;20411;-67
2023/03/07 11:10:57;;;;;;;1999.90;999.90;;;2.50;99.90;;;;;;5055632;28;20432;-69
2023/03/07 11:13:24;;;;;;;1999.90;999.90;;;2.40;99.90;;;;;;5053487;28;20903;-68
2023/03/07 11:15:51;;;;;;;1999.90;999.90;;;2.20;99.90;;;;;;5053299;28;20519;-67
2023/03/07 11:18:31;;;;;;;1999.90;999.90;;;2.20;99.90;;;;;;5067302;28;20955;-68
2023/03/07 11:21:00;;;;;;;1999.90;999.90;;;2.20;99.90;;;;;;5066879;28;20462;-70
2023/03/07 11:23:29;;;;;;;1999.90;999.90;;;2.20;99.90;;;;;;5071651;28;20775;-68
2023/03/07 11:25:57;;;;;;;1999.90;999.90;;;2.20;99.90;;;;;;5070579;28;20421;-71
2023/03/07 11:28:29;;;;;;;1999.90;999.90;;;2.20;99.90;;;;;;5071793;28;20842;-67
2023/03/07 11:31:09;;;;;;;1999.90;999.90;;;2.30;99.90;;;;;;5068186;28;20793;-67
2023/03/07 11:33:47;;;;;;;1999.90;999.90;;;2.30;99.90;;;;;;5068636;28;20489;-68
2023/03/07 11:36:16;;;;;;;1999.90;999.90;;;2.50;99.90;;;;;;5066423;28;20515;-71
2023/03/07 11:38:56;;;;;;;1999.90;999.90;;;2.60;99.90;;;;;;5068550;28;20428;-67
2023/03/07 11:41:27;;;;;;;1999.90;999.90;;;2.70;99.90;;;;;;5066902;28;20435;-67
2023/03/07 11:44:08;;;;;;;1999.90;999.90;;;2.70;99.90;;;;;;5069302;28;20431;-69
2023/03/07 11:46:49;;;;;;;1999.90;999.90;;;2.80;99.90;;;;;;5067520;28;20446;-68
2023/03/07 11:49:30;;;;;;;1999.90;999.90;;;2.90;99.90;;;;;;5068223;28;20435;-70
2023/03/07 11:52:11;;;;;;;1999.90;999.90;;;2.90;99.90;;;;;;5069570;28;20424;-71
2023/03/07 11:54:48;;;;;;;1999.90;999.90;;;2.90;99.90;;;;;;5071867;28;20432;-68
2023/03/07 11:57:25;;;;;;;1999.90;999.90;;;3.00;99.90;;;;;;5074906;28;20433;-71
2023/03/07 12:00:04;;;;;;;1999.90;999.90;;;3.00;99.90;;;;;;5069968;28;20801;-67
2023/03/07 12:02:53;;;;;;;1999.90;999.90;;;2.90;99.90;;;;;;5068525;28;20453;-68
2023/03/07 12:05:34;;;;;;;1999.90;999.90;;;2.90;99.90;;;;;;5068495;28;20439;-66
2023/03/07 12:08:27;;;;;;;1999.90;999.90;;;2.90;99.90;;;;;;5064969;28;20423;-72
2023/03/07 12:11:05;;;;;;;1999.90;999.90;;;2.90;99.90;;;;;;5064405;28;20431;-69
2023/03/07 12:13:40;;;;;;;1999.90;999.90;;;2.90;99.90;;;;;;5068516;28;20429;-68
2023/03/07 12:16:15;;;;;;;1999.90;999.90;;;3.00;99.90;;;;;;5067841;28;20431;-67